Time;durP1;ratioP1;P1;durP2;ratioP2;P2;SDS_P1;SDS_P2;PMS_P1;PMS_P2;Temp;Humidity;BMP_temperature;BMP_pressure;BME280_temperature;BME280_humidity;BME280_pressure;Samples;Min_cycle;Max_cycle;Signal;HPM_P1;HPM_P2
2021/06/11 00:02:06;;;;;;;5.95;4.32;;;21.90;96.70;;;;;;5103434;27;20035;-74
2021/06/11 00:04:36;;;;;;;6.03;4.30;;;21.90;96.70;;;;;;5097611;27;20522;-74
2021/06/11 00:07:06;;;;;;;5.82;4.28;;;21.80;96.70;;;;;;5098351;27;20826;-74
2021/06/11 00:09:36;;;;;;;7.18;4.03;;;21.70;96.70;;;;;;5092839;28;20540;-74
2021/06/11 00:12:08;;;;;;;6.28;3.88;;;21.80;96.70;;;;;;5097514;27;20067;-74
2021/06/11 00:14:38;;;;;;;4.63;3.67;;;21.80;96.70;;;;;;5101171;27;20047;-74
2021/06/11 00:17:08;;;;;;;4.07;3.60;;;21.70;96.70;;;;;;5096748;27;20150;-74
2021/06/11 00:19:37;;;;;;;3.78;3.47;;;21.70;96.70;;;;;;5099703;28;20043;-74
2021/06/11 00:22:06;;;;;;;4.50;3.30;;;21.60;96.70;;;;;;5101748;27;20555;-74
2021/06/11 00:24:36;;;;;;;4.93;3.33;;;21.60;96.70;;;;;;5097187;28;20044;-74
2021/06/11 00:27:05;;;;;;;5.97;3.70;;;21.60;96.70;;;;;;5101782;28;20047;-74
2021/06/11 00:29:34;;;;;;;4.15;3.70;;;21.60;96.70;;;;;;5097850;27;20074;-74
2021/06/11 00:32:04;;;;;;;3.95;3.60;;;21.60;96.70;;;;;;5101261;27;20055;-74
2021/06/11 00:34:33;;;;;;;4.82;3.63;;;21.50;96.70;;;;;;5115897;27;20036;-74
2021/06/11 00:37:02;;;;;;;5.03;3.65;;;21.50;96.70;;;;;;5083863;28;20134;-74
2021/06/11 00:39:31;;;;;;;4.20;3.80;;;21.50;96.70;;;;;;5096603;28;20039;-74
2021/06/11 00:42:04;;;;;;;4.43;3.92;;;21.40;96.70;;;;;;5097876;27;20043;-74
2021/06/11 00:44:39;;;;;;;4.20;3.65;;;21.30;96.70;;;;;;5102935;28;20048;-73
2021/06/11 00:47:17;;;;;;;5.50;3.55;;;21.30;96.70;;;;;;5102141;28;20583;-74
2021/06/11 00:49:51;;;;;;;5.07;3.80;;;21.30;96.70;;;;;;5084631;28;20050;-72
2021/06/11 00:52:27;;;;;;;4.57;4.13;;;21.30;96.70;;;;;;5084681;28;20040;-73
2021/06/11 00:55:09;;;;;;;5.80;3.70;;;21.30;96.70;;;;;;5098816;28;20063;-73
2021/06/11 00:57:45;;;;;;;6.00;4.28;;;21.30;96.70;;;;;;5108020;27;20135;-73
2021/06/11 01:00:16;;;;;;;4.07;3.65;;;21.30;96.70;;;;;;5099688;28;20075;-73
2021/06/11 01:02:46;;;;;;;3.90;3.60;;;21.20;96.70;;;;;;5099438;28;20052;-72
2021/06/11 01:05:15;;;;;;;4.82;3.95;;;21.20;96.70;;;;;;5097372;28;20046;-73
2021/06/11 01:07:47;;;;;;;5.45;4.00;;;21.10;96.70;;;;;;5095178;28;20173;-73
2021/06/11 01:10:17;;;;;;;4.80;4.30;;;21.10;96.70;;;;;;5105638;28;20400;-73
2021/06/11 01:12:50;;;;;;;6.75;3.75;;;21.10;96.70;;;;;;5101646;28;20436;-73
2021/06/11 01:15:21;;;;;;;4.38;3.97;;;21.00;96.70;;;;;;5101151;28;20070;-73
2021/06/11 01:17:53;;;;;;;4.95;3.50;;;20.80;96.70;;;;;;5100169;28;20040;-73
2021/06/11 01:20:24;;;;;;;7.03;3.97;;;20.60;96.70;;;;;;5096961;28;20047;-73
2021/06/11 01:23:29;;;;;;;8.05;4.15;;;20.60;96.70;;;;;;5112836;28;20545;-73
2021/06/11 01:26:20;;;;;;;4.43;4.03;;;20.70;96.70;;;;;;5057333;27;20081;-73
2021/06/11 01:28:53;;;;;;;6.60;4.25;;;20.50;96.70;;;;;;5099678;28;20050;-73
2021/06/11 01:31:24;;;;;;;4.97;4.18;;;20.60;96.70;;;;;;5100816;28;20051;-73
2021/06/11 01:34:02;;;;;;;6.53;4.25;;;20.50;96.70;;;;;;5100011;28;20051;-73
2021/06/11 01:36:37;;;;;;;7.70;3.85;;;20.40;96.70;;;;;;5096863;28;20072;-73
2021/06/11 01:39:08;;;;;;;8.45;3.97;;;20.50;96.70;;;;;;5100074;28;20048;-73
2021/06/11 01:41:39;;;;;;;4.80;4.22;;;20.60;96.70;;;;;;5096495;28;20046;-73
2021/06/11 01:44:10;;;;;;;4.72;4.22;;;20.60;96.70;;;;;;5099939;28;20061;-73
2021/06/11 01:46:43;;;;;;;5.03;4.63;;;20.50;96.70;;;;;;5099262;28;20040;-73
2021/06/11 01:49:15;;;;;;;6.57;4.53;;;20.50;96.70;;;;;;5093906;28;20413;-73
2021/06/11 01:51:46;;;;;;;5.80;4.78;;;20.40;96.70;;;;;;5098668;28;20090;-73
2021/06/11 01:54:17;;;;;;;5.93;5.18;;;20.40;96.70;;;;;;5099552;27;20413;-73
2021/06/11 01:56:49;;;;;;;6.40;5.10;;;20.40;96.70;;;;;;5099428;28;20041;-73
2021/06/11 01:59:20;;;;;;;5.95;4.90;;;20.50;96.70;;;;;;5097751;28;20514;-73
2021/06/11 02:01:51;;;;;;;6.78;5.00;;;20.50;96.70;;;;;;5098431;28;20069;-73
2021/06/11 02:04:22;;;;;;;6.22;4.68;;;20.50;96.70;;;;;;5080868;28;20571;-73
2021/06/11 02:06:52;;;;;;;5.03;4.53;;;20.40;96.70;;;;;;5101503;28;20072;-73
2021/06/11 02:12:49;;;;;;;6.20;4.68;;;20.40;96.70;;;;;;5094288;28;20090;-74
2021/06/11 02:15:39;;;;;;;5.03;4.40;;;20.30;96.70;;;;;;5087247;27;20051;-74
2021/06/11 02:18:08;;;;;;;7.18;4.68;;;20.30;96.70;;;;;;5100555;27;20275;-74
2021/06/11 02:21:02;;;;;;;10.05;5.15;;;20.30;96.70;;;;;;5100759;27;20483;-74
2021/06/11 02:23:31;;;;;;;6.20;4.75;;;20.30;96.70;;;;;;5113165;27;20512;-74
2021/06/11 02:26:01;;;;;;;5.13;4.65;;;20.40;96.70;;;;;;5100991;27;20376;-74
2021/06/11 02:28:32;;;;;;;5.53;4.50;;;20.30;96.70;;;;;;5121469;27;20047;-74
2021/06/11 02:31:01;;;;;;;5.05;4.22;;;20.40;96.70;;;;;;5096567;27;20524;-73
2021/06/11 02:33:31;;;;;;;4.88;4.40;;;20.30;96.70;;;;;;5098527;27;20070;-74
2021/06/11 02:36:01;;;;;;;5.97;4.03;;;20.20;96.70;;;;;;5103934;28;20036;-74
2021/06/11 02:38:30;;;;;;;4.47;4.07;;;20.30;96.70;;;;;;5099104;28;20050;-73
2021/06/11 02:41:01;;;;;;;4.32;3.50;;;20.20;96.70;;;;;;5099289;27;20195;-74
2021/06/11 02:43:35;;;;;;;4.20;3.90;;;20.10;96.70;;;;;;5103011;27;20041;-74
2021/06/11 02:46:09;;;;;;;5.75;4.00;;;20.10;96.70;;;;;;5104736;27;20043;-74
2021/06/11 02:48:45;;;;;;;4.05;3.75;;;20.10;96.70;;;;;;5098482;27;20039;-74
2021/06/11 02:51:28;;;;;;;6.38;4.25;;;20.00;96.70;;;;;;5095151;27;20108;-74
2021/06/11 02:54:01;;;;;;;3.97;3.65;;;20.00;96.70;;;;;;5098193;27;20046;-73
2021/06/11 02:56:38;;;;;;;4.28;3.88;;;20.10;96.70;;;;;;5103958;27;20040;-74
2021/06/11 02:59:15;;;;;;;4.47;3.85;;;20.00;96.70;;;;;;5095947;28;20059;-74
2021/06/11 03:01:48;;;;;;;4.43;4.03;;;19.90;96.70;;;;;;5098228;27;20071;-74
2021/06/11 03:08:28;;;;;;;4.95;4.35;;;20.10;96.70;;;;;;5097936;28;20177;-74
2021/06/11 03:11:02;;;;;;;5.43;3.92;;;20.10;96.70;;;;;;5064813;28;20059;-73
2021/06/11 03:13:34;;;;;;;7.05;4.18;;;20.20;96.70;;;;;;5067638;28;20585;-74
2021/06/11 03:16:06;;;;;;;5.65;4.45;;;20.20;96.70;;;;;;5097415;28;20415;-74
2021/06/11 03:18:39;;;;;;;4.95;3.70;;;20.20;96.70;;;;;;5083827;28;20053;-74
2021/06/11 03:21:15;;;;;;;5.38;3.80;;;20.20;96.70;;;;;;5097637;28;20055;-74
2021/06/11 03:23:53;;;;;;;5.00;4.30;;;20.20;96.70;;;;;;5078196;28;20119;-74
2021/06/11 03:26:29;;;;;;;7.93;4.28;;;20.00;96.70;;;;;;5094072;28;20494;-74
2021/06/11 03:29:08;;;;;;;4.53;3.80;;;20.00;96.70;;;;;;5097487;28;20043;-73
2021/06/11 03:31:48;;;;;;;4.50;3.55;;;20.00;96.70;;;;;;5091616;28;20052;-74
2021/06/11 03:34:25;;;;;;;4.00;3.60;;;20.00;96.70;;;;;;5097663;28;20047;-74
2021/06/11 03:36:58;;;;;;;4.80;4.30;;;19.90;96.70;;;;;;5098890;28;20100;-74
2021/06/11 03:39:30;;;;;;;3.95;3.65;;;19.90;96.70;;;;;;5104506;27;20043;-74
2021/06/11 03:42:00;;;;;;;6.43;4.13;;;19.90;96.70;;;;;;5102710;27;20074;-74
2021/06/11 03:44:30;;;;;;;4.80;3.83;;;19.90;96.70;;;;;;5101781;27;20051;-74
2021/06/11 03:47:03;;;;;;;4.50;3.65;;;20.00;96.70;;;;;;5098818;28;20035;-73
2021/06/11 03:49:35;;;;;;;6.38;4.47;;;20.00;96.70;;;;;;5100752;27;20089;-74
2021/06/11 03:52:05;;;;;;;4.68;4.28;;;20.00;96.70;;;;;;5096101;28;20042;-74
2021/06/11 03:54:37;;;;;;;6.15;4.13;;;19.80;96.70;;;;;;5084427;28;20047;-74
2021/06/11 03:57:09;;;;;;;5.55;3.80;;;19.70;96.70;;;;;;5118492;27;20055;-74
2021/06/11 03:59:42;;;;;;;5.03;3.70;;;19.80;96.70;;;;;;5100496;28;20113;-74
2021/06/11 04:02:16;;;;;;;4.07;3.67;;;19.80;96.70;;;;;;5094179;27;20040;-74
2021/06/11 04:04:46;;;;;;;5.88;3.88;;;19.70;96.70;;;;;;5096097;28;20417;-74
2021/06/11 04:07:22;;;;;;;7.20;4.07;;;19.80;96.70;;;;;;5098433;28;20118;-74
2021/06/11 04:10:02;;;;;;;5.68;4.30;;;19.70;96.70;;;;;;5103081;27;20088;-74
2021/06/11 04:12:40;;;;;;;5.60;3.80;;;19.80;96.70;;;;;;5099816;27;20054;-74
2021/06/11 04:15:12;;;;;;;4.65;4.15;;;19.70;96.70;;;;;;5099040;27;20044;-73
2021/06/11 04:17:48;;;;;;;4.63;4.03;;;19.70;96.70;;;;;;5102900;27;20040;-74
2021/06/11 04:20:22;;;;;;;4.50;4.10;;;19.80;96.70;;;;;;5097507;27;20047;-74
2021/06/11 04:22:52;;;;;;;6.35;4.50;;;19.80;96.70;;;;;;5101726;27;20046;-74
2021/06/11 04:25:21;;;;;;;5.88;4.13;;;19.70;96.70;;;;;;5099386;27;20055;-74
2021/06/11 04:27:53;;;;;;;5.57;3.80;;;19.80;96.70;;;;;;5097924;28;20130;-74
2021/06/11 04:30:24;;;;;;;7.03;4.38;;;19.80;96.70;;;;;;5115687;27;20123;-74
2021/06/11 04:32:55;;;;;;;5.30;4.47;;;19.70;96.70;;;;;;5100804;27;20048;-73
2021/06/11 04:35:25;;;;;;;6.78;4.00;;;19.70;96.70;;;;;;5100036;28;20150;-74
2021/06/11 04:37:56;;;;;;;5.68;4.20;;;19.80;96.70;;;;;;5098385;28;20073;-74
2021/06/11 04:40:25;;;;;;;6.15;4.68;;;19.90;96.70;;;;;;5121392;27;20217;-74
2021/06/11 04:42:54;;;;;;;7.13;4.50;;;19.80;96.70;;;;;;5098639;28;20134;-74
2021/06/11 04:45:22;;;;;;;8.75;4.50;;;19.80;96.70;;;;;;5098146;27;20047;-75
2021/06/11 04:47:57;;;;;;;6.47;4.63;;;19.90;96.70;;;;;;5097351;28;20118;-74
2021/06/11 04:50:26;;;;;;;5.60;4.38;;;20.00;96.70;;;;;;5094393;27;20109;-74
2021/06/11 04:52:55;;;;;;;8.88;4.88;;;20.00;96.70;;;;;;5097892;27;20405;-74
2021/06/11 04:55:23;;;;;;;6.93;4.72;;;20.10;96.70;;;;;;5100658;28;20132;-74
2021/06/11 04:57:53;;;;;;;10.18;5.22;;;20.10;96.70;;;;;;5096934;28;20078;-74
2021/06/11 05:00:25;;;;;;;6.22;5.15;;;20.10;96.70;;;;;;5103616;27;20831;-74
2021/06/11 05:02:53;;;;;;;5.03;4.53;;;20.10;96.70;;;;;;5097936;28;20051;-75
2021/06/11 05:05:23;;;;;;;5.60;4.88;;;20.20;96.70;;;;;;5097980;28;20027;-74
2021/06/11 05:07:51;;;;;;;7.05;5.22;;;20.20;96.70;;;;;;5099401;28;20043;-74
2021/06/11 05:10:20;;;;;;;6.65;4.75;;;20.20;96.70;;;;;;5082443;28;20584;-75
2021/06/11 05:12:48;;;;;;;6.95;5.22;;;20.10;96.70;;;;;;5100903;28;20036;-74
2021/06/11 05:15:18;;;;;;;6.35;4.93;;;20.20;96.70;;;;;;5097992;28;20474;-74
2021/06/11 05:17:46;;;;;;;6.70;4.90;;;20.30;96.70;;;;;;5101496;28;20058;-74
2021/06/11 05:20:15;;;;;;;5.30;4.80;;;20.30;96.70;;;;;;5084877;28;20361;-74
2021/06/11 05:22:45;;;;;;;8.23;5.45;;;20.30;96.70;;;;;;5097116;28;20036;-74
2021/06/11 05:25:14;;;;;;;6.35;4.82;;;20.20;96.70;;;;;;5102103;28;20122;-74
2021/06/11 05:27:42;;;;;;;6.50;5.55;;;20.00;96.70;;;;;;5102100;28;20039;-75
2021/06/11 05:30:12;;;;;;;6.45;4.95;;;20.00;96.70;;;;;;5094935;28;20039;-75
2021/06/11 05:32:43;;;;;;;6.65;5.32;;;20.10;96.70;;;;;;5084661;28;20075;-74
2021/06/11 05:35:12;;;;;;;5.72;5.18;;;20.20;96.70;;;;;;5099645;28;20040;-74
2021/06/11 05:37:40;;;;;;;7.82;5.03;;;20.20;96.70;;;;;;5099074;28;20047;-75
2021/06/11 05:40:12;;;;;;;5.68;5.18;;;20.20;96.70;;;;;;5090564;28;20032;-74
2021/06/11 05:42:40;;;;;;;6.40;5.07;;;20.30;96.70;;;;;;5101958;27;20043;-75
2021/06/11 05:45:09;;;;;;;6.57;4.95;;;20.40;96.70;;;;;;5104901;27;20043;-74
2021/06/11 05:47:38;;;;;;;6.65;5.15;;;20.50;96.70;;;;;;5104474;27;20038;-75
2021/06/11 05:50:08;;;;;;;7.82;5.50;;;20.60;96.70;;;;;;5105423;27;20047;-75
2021/06/11 05:52:36;;;;;;;7.97;5.38;;;20.70;96.70;;;;;;5088367;28;20053;-75
2021/06/11 05:55:06;;;;;;;7.85;5.20;;;20.70;96.70;;;;;;5082842;28;20063;-75
2021/06/11 05:57:36;;;;;;;6.53;5.15;;;20.70;96.70;;;;;;5099233;28;20082;-76
2021/06/11 06:00:06;;;;;;;6.22;5.28;;;20.70;96.70;;;;;;5098484;27;20313;-75
2021/06/11 06:02:34;;;;;;;6.18;5.57;;;20.80;96.70;;;;;;5103846;27;20502;-75
2021/06/11 06:05:04;;;;;;;6.38;5.30;;;20.90;96.70;;;;;;5101390;27;20043;-76
2021/06/11 06:07:36;;;;;;;7.00;5.60;;;20.90;96.70;;;;;;5098039;27;20074;-76
2021/06/11 06:10:05;;;;;;;6.35;5.75;;;20.90;96.70;;;;;;5097637;27;20036;-75
2021/06/11 06:12:35;;;;;;;6.65;5.85;;;20.90;96.70;;;;;;5099539;27;20044;-75
2021/06/11 06:15:05;;;;;;;6.22;5.63;;;21.00;96.70;;;;;;5100802;28;20105;-75
2021/06/11 06:17:35;;;;;;;9.52;5.70;;;21.00;96.70;;;;;;5105255;27;20035;-75
2021/06/11 06:20:06;;;;;;;7.43;5.70;;;21.10;96.70;;;;;;5093131;27;20613;-75
2021/06/11 06:22:40;;;;;;;6.10;5.38;;;21.20;96.70;;;;;;5121707;27;20040;-77
2021/06/11 06:25:10;;;;;;;6.80;5.70;;;21.20;96.70;;;;;;5101049;27;20039;-73
2021/06/11 06:27:42;;;;;;;7.43;5.45;;;21.30;96.70;;;;;;5104259;27;20050;-75
2021/06/11 06:30:12;;;;;;;9.35;5.68;;;21.30;96.70;;;;;;5114499;27;20471;-74
2021/06/11 06:32:41;;;;;;;6.18;5.50;;;21.40;96.70;;;;;;5102385;27;20126;-74
2021/06/11 06:35:13;;;;;;;6.75;5.85;;;21.50;96.70;;;;;;5120466;27;20149;-74
2021/06/11 06:37:42;;;;;;;5.63;5.13;;;21.50;96.70;;;;;;5086022;28;20039;-74
2021/06/11 06:40:11;;;;;;;5.78;5.28;;;21.50;96.70;;;;;;5099761;27;20522;-75
2021/06/11 06:42:42;;;;;;;5.97;5.05;;;21.60;96.70;;;;;;5102650;27;20036;-75
2021/06/11 06:45:14;;;;;;;5.45;4.95;;;21.70;96.70;;;;;;5102656;27;20047;-74
2021/06/11 06:47:44;;;;;;;5.85;5.13;;;21.70;96.70;;;;;;5108567;27;20047;-75
2021/06/11 06:50:15;;;;;;;6.95;6.00;;;21.80;96.70;;;;;;5100171;28;20052;-75
2021/06/11 06:52:44;;;;;;;7.97;5.68;;;21.90;96.70;;;;;;5103873;27;20055;-75
2021/06/11 06:55:14;;;;;;;5.90;5.30;;;21.90;96.70;;;;;;5105483;27;20590;-75
2021/06/11 06:57:44;;;;;;;5.85;5.28;;;22.00;96.70;;;;;;5099373;27;20146;-75
2021/06/11 07:00:13;;;;;;;6.30;4.97;;;22.00;96.70;;;;;;5103200;27;20055;-75
2021/06/11 07:02:41;;;;;;;7.82;5.95;;;22.00;96.70;;;;;;5106286;27;20076;-74
2021/06/11 07:05:11;;;;;;;6.40;5.82;;;22.10;96.70;;;;;;5102898;28;20054;-75
2021/06/11 07:07:39;;;;;;;6.72;6.05;;;22.20;96.70;;;;;;5099532;28;20193;-75
2021/06/11 07:10:08;;;;;;;7.30;6.40;;;22.20;96.70;;;;;;5087190;28;20043;-75
2021/06/11 07:12:37;;;;;;;6.55;5.78;;;22.20;96.70;;;;;;5101211;27;20044;-75
2021/06/11 07:15:09;;;;;;;10.60;7.47;;;22.30;96.70;;;;;;5099392;28;20048;-75
2021/06/11 07:17:38;;;;;;;7.72;6.55;;;22.40;96.70;;;;;;5100396;27;20044;-75
2021/06/11 07:20:09;;;;;;;9.02;7.32;;;22.40;96.70;;;;;;5102477;28;20042;-75
2021/06/11 07:22:37;;;;;;;11.10;7.00;;;22.40;96.70;;;;;;5096724;28;20078;-75
2021/06/11 07:25:07;;;;;;;9.05;6.95;;;22.40;96.70;;;;;;5099882;27;20130;-74
2021/06/11 07:27:36;;;;;;;7.63;6.78;;;22.50;96.70;;;;;;5103987;27;20050;-74
2021/06/11 07:30:08;;;;;;;7.65;6.80;;;22.60;96.70;;;;;;5101764;27;20453;-75
2021/06/11 07:32:43;;;;;;;8.85;7.60;;;22.70;96.70;;;;;;5096741;27;20040;-75
2021/06/11 07:35:12;;;;;;;8.45;6.50;;;22.60;96.70;;;;;;5115371;27;20054;-76
2021/06/11 07:37:41;;;;;;;7.28;6.63;;;22.60;96.70;;;;;;5084297;27;20760;-75
2021/06/11 07:40:11;;;;;;;9.73;7.18;;;22.80;96.70;;;;;;5100354;28;20134;-75
2021/06/11 07:42:40;;;;;;;8.10;7.22;;;22.80;96.70;;;;;;5101367;27;20054;-75
2021/06/11 07:45:11;;;;;;;8.55;7.72;;;22.70;96.70;;;;;;5100151;27;20044;-75
2021/06/11 07:47:40;;;;;;;7.43;6.75;;;22.80;96.70;;;;;;5102709;27;20047;-75
2021/06/11 07:50:09;;;;;;;8.18;7.00;;;22.90;96.70;;;;;;5100175;27;20040;-74
2021/06/11 07:52:38;;;;;;;7.43;6.80;;;22.90;96.70;;;;;;5103293;27;20044;-74
2021/06/11 07:55:08;;;;;;;7.07;6.38;;;23.00;96.70;;;;;;5082689;27;20040;-75
2021/06/11 07:57:36;;;;;;;8.35;7.55;;;23.10;96.70;;;;;;5077306;28;20306;-75
2021/06/11 08:00:06;;;;;;;7.82;6.90;;;23.10;96.70;;;;;;5097655;28;20130;-75
2021/06/11 08:02:55;;;;;;;7.22;6.63;;;23.20;96.70;;;;;;5100614;28;20100;-75
2021/06/11 08:05:24;;;;;;;6.95;6.25;;;23.30;96.70;;;;;;5093859;27;20044;-75
2021/06/11 08:07:53;;;;;;;8.38;7.57;;;23.40;96.70;;;;;;5099384;27;20043;-75
2021/06/11 08:10:22;;;;;;;8.57;7.28;;;23.50;96.70;;;;;;5099796;27;20057;-74
2021/06/11 08:12:51;;;;;;;13.18;7.57;;;23.60;96.70;;;;;;5100440;27;20146;-75
2021/06/11 08:15:20;;;;;;;7.28;6.68;;;23.60;96.70;;;;;;5102391;27;20043;-75
2021/06/11 08:17:48;;;;;;;8.30;6.47;;;23.70;96.70;;;;;;5099910;28;20127;-75
2021/06/11 08:20:19;;;;;;;8.18;6.85;;;23.80;96.70;;;;;;5097507;27;20048;-75
2021/06/11 08:22:48;;;;;;;6.88;6.28;;;23.90;96.70;;;;;;5098929;28;20075;-75
2021/06/11 08:25:17;;;;;;;7.15;6.40;;;24.00;96.70;;;;;;5099243;28;20050;-76
2021/06/11 08:27:45;;;;;;;7.88;6.57;;;24.10;96.70;;;;;;5103894;27;20144;-75
2021/06/11 08:30:14;;;;;;;7.13;6.13;;;24.20;96.70;;;;;;5094020;28;20113;-74
2021/06/11 08:32:48;;;;;;;7.18;6.35;;;24.20;96.70;;;;;;5116626;27;20054;-75
2021/06/11 08:35:19;;;;;;;7.20;6.57;;;24.30;96.70;;;;;;5100460;28;20353;-75
2021/06/11 08:37:48;;;;;;;7.30;6.70;;;24.40;96.70;;;;;;5096920;28;20046;-75
2021/06/11 08:40:17;;;;;;;7.20;6.55;;;24.50;96.70;;;;;;5095847;27;20054;-75
2021/06/11 08:42:47;;;;;;;7.35;6.00;;;24.60;96.70;;;;;;5098193;28;20044;-75
2021/06/11 08:45:17;;;;;;;8.20;6.38;;;24.70;96.70;;;;;;5100266;28;20035;-75
2021/06/11 08:47:48;;;;;;;7.07;6.30;;;24.80;96.70;;;;;;5097933;28;20118;-75
2021/06/11 08:50:20;;;;;;;7.88;7.00;;;24.90;96.70;;;;;;5100498;28;20116;-75
2021/06/11 08:52:50;;;;;;;7.45;6.65;;;24.90;96.70;;;;;;5097499;28;20428;-75
2021/06/11 08:55:19;;;;;;;7.88;6.60;;;24.90;96.70;;;;;;5104068;27;20056;-74
2021/06/11 08:57:48;;;;;;;8.07;5.93;;;25.00;96.70;;;;;;5095806;28;20147;-75
2021/06/11 09:00:17;;;;;;;7.03;6.43;;;25.00;96.70;;;;;;5096283;27;20410;-75
2021/06/11 09:03:08;;;;;;;7.15;6.43;;;25.00;96.60;;;;;;5099209;27;20080;-75
2021/06/11 09:05:39;;;;;;;6.78;6.07;;;25.20;96.70;;;;;;5096754;28;20044;-75
2021/06/11 09:08:13;;;;;;;6.63;6.03;;;25.40;96.70;;;;;;5101825;28;20040;-75
2021/06/11 09:10:42;;;;;;;7.60;6.70;;;25.50;96.70;;;;;;5095672;28;20416;-75
2021/06/11 09:13:20;;;;;;;6.57;5.80;;;25.60;96.70;;;;;;5094990;28;20040;-75
2021/06/11 09:15:49;;;;;;;8.55;6.55;;;25.60;96.00;;;;;;5103361;27;20048;-75
2021/06/11 09:18:22;;;;;;;7.68;6.05;;;25.70;96.30;;;;;;5107497;28;20056;-75
2021/06/11 09:20:52;;;;;;;6.80;6.10;;;25.60;96.10;;;;;;5106891;27;20079;-75
2021/06/11 09:23:21;;;;;;;7.63;6.03;;;25.60;95.80;;;;;;5105352;27;20107;-75
2021/06/11 09:25:49;;;;;;;7.63;6.40;;;25.70;96.20;;;;;;5105946;27;20038;-75
2021/06/11 09:28:23;;;;;;;7.15;6.00;;;25.80;96.30;;;;;;5110137;27;20108;-75
2021/06/11 09:30:53;;;;;;;6.65;5.95;;;25.90;96.10;;;;;;5107090;27;20157;-75
2021/06/11 09:33:23;;;;;;;6.60;5.45;;;26.10;95.60;;;;;;5104544;27;20036;-75
2021/06/11 09:35:55;;;;;;;5.72;5.15;;;26.20;93.90;;;;;;5105191;27;20074;-75
2021/06/11 09:38:26;;;;;;;6.85;5.60;;;26.40;94.00;;;;;;5102597;27;20036;-75
2021/06/11 09:41:08;;;;;;;5.95;5.28;;;26.50;91.80;;;;;;5104718;28;20138;-75
2021/06/11 09:43:54;;;;;;;5.55;5.05;;;26.70;93.40;;;;;;5101530;27;20047;-75
2021/06/11 09:46:23;;;;;;;5.43;5.03;;;26.70;93.40;;;;;;5100907;27;20043;-75
2021/06/11 09:48:51;;;;;;;5.57;5.07;;;26.60;93.00;;;;;;5094904;28;20486;-75
2021/06/11 09:51:24;;;;;;;7.85;5.13;;;26.80;92.70;;;;;;5102931;27;20083;-75
2021/06/11 09:53:54;;;;;;;10.50;5.05;;;26.90;92.20;;;;;;5108565;27;20035;-74
2021/06/11 09:56:23;;;;;;;6.03;5.20;;;27.00;92.10;;;;;;5105755;27;20634;-75
2021/06/11 09:58:53;;;;;;;5.78;5.03;;;26.90;92.00;;;;;;5118214;27;20098;-75
2021/06/11 10:01:22;;;;;;;5.47;4.97;;;27.00;91.60;;;;;;5103265;27;20067;-75
2021/06/11 10:03:53;;;;;;;5.22;4.72;;;27.10;90.40;;;;;;5103606;27;20040;-75
2021/06/11 10:06:23;;;;;;;5.68;4.90;;;27.30;90.00;;;;;;5106472;27;20417;-75
2021/06/11 10:08:52;;;;;;;5.95;4.90;;;27.40;90.60;;;;;;5106220;27;20643;-75
2021/06/11 10:11:25;;;;;;;5.85;5.25;;;27.50;91.00;;;;;;5105538;27;20070;-75
2021/06/11 10:13:54;;;;;;;5.18;4.60;;;27.60;88.30;;;;;;5101991;27;20165;-75
2021/06/11 10:16:23;;;;;;;4.80;4.15;;;27.70;88.70;;;;;;5105044;27;20042;-75
2021/06/11 10:18:52;;;;;;;5.70;5.07;;;27.70;88.90;;;;;;5124433;27;20043;-75
2021/06/11 10:21:26;;;;;;;4.90;4.50;;;27.80;88.30;;;;;;5105336;28;20070;-75
2021/06/11 10:23:57;;;;;;;4.70;4.30;;;28.00;87.60;;;;;;5099113;27;20381;-75
2021/06/11 10:26:27;;;;;;;5.70;4.68;;;28.20;86.90;;;;;;5102970;27;20088;-75
2021/06/11 10:28:56;;;;;;;6.18;4.40;;;28.30;86.60;;;;;;5100995;27;20046;-75
2021/06/11 10:31:25;;;;;;;5.63;5.13;;;28.50;86.10;;;;;;5100782;28;20032;-75
2021/06/11 10:34:00;;;;;;;5.03;4.35;;;28.40;85.00;;;;;;5104720;27;20509;-75
2021/06/11 10:36:42;;;;;;;6.68;4.20;;;28.40;85.10;;;;;;5085901;27;20392;-75
2021/06/11 10:39:28;;;;;;;7.07;4.57;;;28.60;84.80;;;;;;5098908;27;20043;-75
2021/06/11 10:41:59;;;;;;;4.68;4.25;;;28.70;84.30;;;;;;5116012;27;20047;-75
2021/06/11 10:44:36;;;;;;;4.82;4.35;;;28.90;84.40;;;;;;5103296;27;20024;-75
2021/06/11 10:47:23;;;;;;;5.28;4.03;;;29.20;84.30;;;;;;5102058;27;20031;-75
2021/06/11 10:50:07;;;;;;;5.88;3.80;;;29.20;82.80;;;;;;5117529;27;20472;-75
2021/06/11 10:52:38;;;;;;;4.47;3.90;;;29.50;83.90;;;;;;5098745;27;20056;-75
2021/06/11 10:55:46;;;;;;;6.78;4.22;;;29.60;83.60;;;;;;5097806;27;20039;-75
2021/06/11 10:58:34;;;;;;;4.32;3.92;;;29.00;83.70;;;;;;5101942;27;20052;-75
2021/06/11 11:01:22;;;;;;;4.22;3.60;;;28.80;83.10;;;;;;5100840;27;20064;-76
2021/06/11 11:03:51;;;;;;;3.72;2.70;;;28.90;82.90;;;;;;5098525;27;20066;-75
2021/06/11 11:06:33;;;;;;;2.85;2.65;;;28.90;80.90;;;;;;5102676;27;20165;-75
2021/06/11 11:09:05;;;;;;;3.08;2.83;;;28.80;78.70;;;;;;5102972;27;20059;-75
2021/06/11 11:11:41;;;;;;;4.93;3.20;;;29.10;79.60;;;;;;5111481;27;20060;-75
2021/06/11 11:14:40;;;;;;;3.83;2.78;;;29.40;80.60;;;;;;5085692;27;20039;-75
2021/06/11 11:17:10;;;;;;;2.95;2.72;;;29.30;78.20;;;;;;5100600;27;20105;-75
2021/06/11 11:19:53;;;;;;;3.33;2.85;;;29.80;78.10;;;;;;5097617;28;20047;-75
2021/06/11 11:22:34;;;;;;;3.10;2.90;;;30.20;76.30;;;;;;5095608;27;20035;-75
2021/06/11 11:25:12;;;;;;;3.10;2.80;;;30.50;77.50;;;;;;5105913;27;20051;-75
2021/06/11 11:27:41;;;;;;;4.45;3.50;;;30.00;79.20;;;;;;5090720;27;20439;-75
2021/06/11 11:30:11;;;;;;;3.25;3.05;;;30.00;78.80;;;;;;5101182;27;20105;-75
2021/06/11 11:32:39;;;;;;;3.70;3.03;;;29.80;77.50;;;;;;5112582;27;20049;-75
2021/06/11 11:35:09;;;;;;;3.00;2.80;;;29.80;77.30;;;;;;5095914;28;20032;-75
2021/06/11 11:37:38;;;;;;;3.88;3.10;;;30.10;78.10;;;;;;5102351;27;20061;-75
2021/06/11 11:40:08;;;;;;;3.75;3.30;;;30.30;78.00;;;;;;5098958;27;20036;-75
2021/06/11 11:42:37;;;;;;;4.78;3.67;;;30.20;78.60;;;;;;5100108;28;20121;-75
2021/06/11 11:45:06;;;;;;;3.28;3.00;;;30.20;79.50;;;;;;5104873;27;20090;-75
2021/06/11 11:47:36;;;;;;;4.13;2.80;;;30.40;78.50;;;;;;5101373;27;20059;-75
2021/06/11 11:50:06;;;;;;;4.50;2.92;;;30.60;77.10;;;;;;5102544;27;20043;-75
2021/06/11 11:52:35;;;;;;;3.22;2.20;;;30.60;77.70;;;;;;5102545;27;20054;-75
2021/06/11 11:55:04;;;;;;;2.22;2.10;;;30.50;76.20;;;;;;5096398;28;20599;-74
2021/06/11 11:57:32;;;;;;;2.83;2.22;;;30.30;75.90;;;;;;5099210;27;20499;-75
2021/06/11 12:00:01;;;;;;;3.90;2.10;;;30.30;75.70;;;;;;5100173;27;20043;-75
2021/06/11 12:02:38;;;;;;;;;;;30.30;74.50;;;;;;5099887;28;20055;-75
2021/06/11 12:05:08;;;;;;;3.65;2.00;;;30.10;74.30;;;;;;5097125;27;20021;-75
2021/06/11 12:07:36;;;;;;;1.95;1.75;;;30.50;75.00;;;;;;5114404;27;20067;-75
2021/06/11 12:10:05;;;;;;;3.22;2.30;;;31.00;73.40;;;;;;5100167;28;20043;-75
2021/06/11 12:12:34;;;;;;;2.55;2.35;;;30.90;74.70;;;;;;5101271;27;20040;-75
2021/06/11 12:15:03;;;;;;;2.38;2.17;;;30.80;74.80;;;;;;5100161;27;20408;-75
2021/06/11 12:17:31;;;;;;;2.72;2.53;;;30.20;75.80;;;;;;5102565;27;20048;-76
2021/06/11 12:20:01;;;;;;;2.65;2.42;;;29.70;76.70;;;;;;5101627;27;20040;-75
2021/06/11 12:22:29;;;;;;;3.25;2.72;;;29.30;77.90;;;;;;5097936;27;20035;-75
2021/06/11 12:24:57;;;;;;;2.50;2.28;;;29.30;79.70;;;;;;5092671;28;20083;-75
2021/06/11 12:27:25;;;;;;;3.60;2.30;;;29.80;78.90;;;;;;5099414;27;20048;-75
2021/06/11 12:29:54;;;;;;;2.55;2.30;;;30.20;76.70;;;;;;5082625;28;20839;-75
2021/06/11 12:32:22;;;;;;;4.20;3.22;;;30.70;77.90;;;;;;5100577;28;20050;-75
2021/06/11 12:34:50;;;;;;;3.72;2.75;;;30.90;77.20;;;;;;5095889;28;20054;-75
2021/06/11 12:37:20;;;;;;;2.75;2.30;;;30.70;76.30;;;;;;5101129;27;20123;-75
2021/06/11 12:39:51;;;;;;;2.20;2.00;;;30.40;76.80;;;;;;5101379;27;20049;-75
2021/06/11 12:42:26;;;;;;;2.42;2.20;;;30.10;77.30;;;;;;5090765;27;20088;-75
2021/06/11 12:44:55;;;;;;;2.88;2.30;;;30.00;77.30;;;;;;5093605;28;20489;-75
2021/06/11 12:47:23;;;;;;;3.50;2.22;;;29.90;77.20;;;;;;5102756;27;20108;-75
2021/06/11 12:49:51;;;;;;;3.65;2.20;;;29.80;77.80;;;;;;5098583;27;20036;-75
2021/06/11 12:52:21;;;;;;;2.65;1.92;;;29.60;77.50;;;;;;5097484;28;20506;-75
2021/06/11 12:54:50;;;;;;;2.50;2.08;;;29.50;78.30;;;;;;5099328;27;20071;-74
2021/06/11 12:57:18;;;;;;;4.45;2.35;;;29.40;79.10;;;;;;5097455;27;20457;-75
2021/06/11 12:59:46;;;;;;;2.58;2.38;;;29.20;79.30;;;;;;5103392;27;20078;-75
2021/06/11 13:02:16;;;;;;;2.83;1.85;;;29.00;80.10;;;;;;5096618;27;20130;-75
2021/06/11 13:04:44;;;;;;;2.92;2.13;;;28.70;79.80;;;;;;5098662;27;20374;-75
2021/06/11 13:07:12;;;;;;;2.22;2.00;;;28.40;79.80;;;;;;5101277;27;20036;-75
2021/06/11 13:09:42;;;;;;;2.58;2.03;;;28.10;79.30;;;;;;5101185;28;20568;-75
2021/06/11 13:12:11;;;;;;;3.85;1.98;;;27.90;79.70;;;;;;5101773;27;20070;-75
2021/06/11 13:14:40;;;;;;;2.83;1.95;;;27.70;80.00;;;;;;5098023;28;20206;-75
2021/06/11 13:17:08;;;;;;;4.30;1.88;;;27.50;80.80;;;;;;5099897;28;20354;-75
2021/06/11 13:19:37;;;;;;;3.20;1.73;;;27.40;80.90;;;;;;5100247;28;20047;-75